Time;durP1;ratioP1;P1;durP2;ratioP2;P2;SDS_P1;SDS_P2;PMS_P1;PMS_P2;Temp;Humidity;BMP_temperature;BMP_pressure;BME280_temperature;BME280_humidity;BME280_pressure;Samples;Min_cycle;Max_cycle;Signal;HPM_P1;HPM_P2
2020/12/15 00:02:26;;;;;;;12.45;5.65;;;9.10;95.30;;;;;;5083122;28;20032;-89
2020/12/15 00:05:18;;;;;;;10.13;5.93;;;9.10;95.30;;;;;;5100444;28;20020;-89
2020/12/15 00:08:06;;;;;;;9.80;5.80;;;9.10;95.40;;;;;;5116250;28;20360;-91
2020/12/15 00:13:27;;;;;;;9.63;5.40;;;9.00;95.30;;;;;;5125828;28;20032;-90
2020/12/15 00:16:28;;;;;;;8.18;5.40;;;9.00;95.40;;;;;;5082125;28;20019;-90
2020/12/15 00:18:57;;;;;;;10.98;5.90;;;9.00;95.40;;;;;;5084882;28;20028;-88
2020/12/15 00:21:24;;;;;;;10.05;5.88;;;9.00;95.40;;;;;;5085156;28;20113;-89
2020/12/15 00:23:59;;;;;;;9.07;5.85;;;9.00;95.40;;;;;;5098763;28;20020;-89
2020/12/15 00:26:28;;;;;;;13.45;6.05;;;9.00;95.40;;;;;;5092714;28;20024;-89
2020/12/15 00:29:21;;;;;;;;;;;;;;;;;;;;;
2020/12/15 00:34:56;;;;;;;11.02;6.18;;;8.90;95.50;;;;;;5117077;28;20134;-90
2020/12/15 00:37:27;;;;;;;9.50;6.18;;;8.90;95.60;;;;;;5098211;28;20082;-90
2020/12/15 00:39:58;;;;;;;10.65;6.47;;;8.90;95.90;;;;;;5098540;28;20023;-89
2020/12/15 00:42:32;;;;;;;;;;;8.80;95.70;;;;;;5098426;28;20098;-90
2020/12/15 00:45:09;;;;;;;9.82;6.10;;;8.90;95.70;;;;;;5078072;28;19912;-89
2020/12/15 00:47:58;;;;;;;9.55;6.15;;;8.80;95.80;;;;;;5089992;28;20016;-89
2020/12/15 00:50:27;;;;;;;13.35;8.10;;;8.80;95.90;;;;;;5076289;28;20048;-90
2020/12/15 00:52:57;;;;;;;10.68;5.72;;;8.80;95.90;;;;;;5091616;28;20025;-89
2020/12/15 00:55:23;;;;;;;11.55;7.38;;;8.90;96.00;;;;;;5075885;28;20458;-89
2020/12/15 00:57:59;;;;;;;11.00;6.45;;;8.90;95.90;;;;;;5074599;28;20093;-89
2020/12/15 01:00:36;;;;;;;8.93;6.03;;;8.90;95.90;;;;;;5081655;28;20063;-89
2020/12/15 01:03:04;;;;;;;8.65;5.68;;;8.90;95.90;;;;;;5088476;28;20022;-89
2020/12/15 01:05:32;;;;;;;10.05;5.93;;;8.90;95.90;;;;;;5075341;28;20031;-90
2020/12/15 01:07:58;;;;;;;10.30;6.47;;;9.00;95.90;;;;;;5098590;28;20054;-89
2020/12/15 01:10:46;;;;;;;9.95;5.82;;;9.00;95.90;;;;;;5100353;28;20043;-89
2020/12/15 01:13:22;;;;;;;11.07;6.80;;;9.00;95.90;;;;;;5093914;28;20087;-91
2020/12/15 01:16:06;;;;;;;8.77;5.60;;;9.00;95.90;;;;;;5084655;28;20095;-90
2020/12/15 01:18:35;;;;;;;8.45;6.05;;;9.10;95.90;;;;;;5099454;28;20019;-90
2020/12/15 01:21:07;;;;;;;10.13;6.25;;;9.10;95.90;;;;;;5099861;28;20143;-90
2020/12/15 01:23:42;;;;;;;11.85;6.35;;;9.10;95.80;;;;;;5091273;28;20055;-90
2020/12/15 01:26:14;;;;;;;7.75;5.30;;;9.20;95.80;;;;;;5098488;28;20034;-90
2020/12/15 01:28:51;;;;;;;14.55;6.60;;;9.20;95.80;;;;;;5101372;28;20027;-90
2020/12/15 01:31:36;;;;;;;8.77;5.35;;;9.20;95.70;;;;;;5108004;28;20026;-91
2020/12/15 01:34:19;;;;;;;8.20;5.40;;;9.20;96.00;;;;;;5105051;27;20028;-91
2020/12/15 01:36:56;;;;;;;11.35;6.57;;;9.20;95.80;;;;;;5107223;28;20000;-91
2020/12/15 01:39:28;;;;;;;11.93;6.55;;;9.20;95.70;;;;;;5115543;28;20031;-91
2020/12/15 01:42:14;;;;;;;6.85;4.45;;;9.30;95.70;;;;;;5116671;28;20027;-90
2020/12/15 01:45:00;;;;;;;8.57;5.35;;;9.30;95.80;;;;;;5112817;28;20034;-90
2020/12/15 01:47:31;;;;;;;7.57;5.43;;;9.40;95.80;;;;;;5098000;28;20046;-90
2020/12/15 01:50:17;;;;;;;8.07;5.00;;;9.40;95.80;;;;;;5097828;28;20379;-90
2020/12/15 01:52:56;;;;;;;8.35;5.80;;;9.40;95.90;;;;;;5079929;28;20031;-89
2020/12/15 01:55:33;;;;;;;7.88;4.70;;;9.40;95.80;;;;;;5076802;28;20123;-90
2020/12/15 01:58:03;;;;;;;8.38;5.15;;;9.40;95.80;;;;;;5085009;28;20031;-90
2020/12/15 02:01:07;;;;;;;;;;;;;;;;;;;;;
2020/12/15 02:03:50;;;;;;;;;;;;;;;;;;;;;
2020/12/15 02:06:33;;;;;;;8.48;5.63;;;9.50;95.80;;;;;;5072618;28;20042;-91
2020/12/15 02:09:12;;;;;;;;;;;;;;;;;;;;;
2020/12/15 02:11:45;;;;;;;11.65;6.10;;;9.50;95.80;;;;;;5115189;28;20478;-90
2020/12/15 02:14:26;;;;;;;;;;;;;;;;;;;;;
2020/12/15 02:17:04;;;;;;;9.75;5.88;;;9.50;95.70;;;;;;5098607;28;20027;-90
2020/12/15 02:19:49;;;;;;;8.18;5.70;;;9.50;95.70;;;;;;5081915;28;20064;-90
2020/12/15 02:22:20;;;;;;;11.32;6.15;;;9.50;95.80;;;;;;5068362;28;20066;-90
2020/12/15 02:24:53;;;;;;;10.95;7.38;;;9.60;95.70;;;;;;5087213;28;20039;-90
2020/12/15 02:27:29;;;;;;;9.20;5.75;;;9.50;95.60;;;;;;5073592;28;20459;-91
2020/12/15 02:30:17;;;;;;;;;;;;;;;;;;;;;
2020/12/15 02:32:53;;;;;;;13.20;7.35;;;9.50;95.70;;;;;;5112933;28;20024;-90
2020/12/15 02:35:29;;;;;;;11.25;6.85;;;9.40;95.60;;;;;;5068898;28;20039;-90
2020/12/15 02:38:06;;;;;;;13.80;7.78;;;9.40;95.70;;;;;;5095684;28;20062;-90
2020/12/15 02:40:56;;;;;;;10.40;7.95;;;9.30;95.80;;;;;;5063893;28;20036;-90
2020/12/15 02:46:21;;;;;;;13.48;8.80;;;9.20;96.10;;;;;;5051397;28;20392;-90
2020/12/15 02:48:51;;;;;;;14.95;9.82;;;9.20;96.20;;;;;;5079578;28;20016;-90
2020/12/15 02:51:20;;;;;;;10.98;8.73;;;9.20;96.20;;;;;;5096389;28;20111;-90
2020/12/15 02:53:59;;;;;;;16.35;10.00;;;9.10;96.40;;;;;;5079540;28;20106;-90
2020/12/15 02:56:45;;;;;;;14.63;9.35;;;9.20;96.50;;;;;;5095192;28;20015;-90
2020/12/15 02:59:18;;;;;;;12.20;8.65;;;9.10;96.60;;;;;;5079463;28;20089;-90
2020/12/15 03:01:48;;;;;;;12.88;9.15;;;9.10;96.80;;;;;;5096285;28;20035;-89
2020/12/15 03:04:17;;;;;;;14.95;9.57;;;9.10;97.00;;;;;;5079493;28;20024;-91
2020/12/15 03:06:45;;;;;;;13.88;9.45;;;9.10;97.00;;;;;;5096688;28;20026;-92
2020/12/15 03:09:31;;;;;;;13.30;9.30;;;9.10;97.10;;;;;;5100564;28;20032;-92
2020/12/15 03:12:09;;;;;;;13.15;8.77;;;9.10;97.10;;;;;;5115494;28;20065;-91
2020/12/15 03:14:37;;;;;;;15.23;9.00;;;9.10;97.10;;;;;;5101182;28;20059;-90
2020/12/15 03:17:13;;;;;;;;;;;;;;;;;;;;;
2020/12/15 03:19:49;;;;;;;14.20;9.55;;;9.20;97.10;;;;;;5128728;28;20091;-90
2020/12/15 03:22:25;;;;;;;11.88;8.10;;;9.20;97.00;;;;;;5106737;28;20023;-90
2020/12/15 03:25:19;;;;;;;12.35;8.07;;;9.20;97.00;;;;;;5084562;28;20031;-92
2020/12/15 03:28:00;;;;;;;;;;;;;;;;;;;;;
2020/12/15 03:30:51;;;;;;;;;;;9.20;96.90;;;;;;5102543;28;20030;-91
2020/12/15 03:33:38;;;;;;;12.87;8.93;;;9.30;97.00;;;;;;5099276;28;19907;-92
2020/12/15 03:36:13;;;;;;;12.02;8.52;;;9.20;96.90;;;;;;5099111;28;20077;-91
2020/12/15 03:38:41;;;;;;;12.85;9.13;;;9.20;97.00;;;;;;5113850;28;20024;-93
2020/12/15 03:41:07;;;;;;;13.48;8.73;;;9.20;97.10;;;;;;5111915;28;20046;-90
2020/12/15 03:43:36;;;;;;;11.45;8.52;;;9.20;97.10;;;;;;5116123;28;20020;-91
2020/12/15 03:46:05;;;;;;;13.90;8.55;;;9.20;97.10;;;;;;5104616;28;20020;-92
2020/12/15 03:48:44;;;;;;;11.40;8.07;;;9.20;97.10;;;;;;5098930;28;20024;-92
2020/12/15 03:51:13;;;;;;;11.70;8.68;;;9.20;97.10;;;;;;5063092;28;20040;-92
2020/12/15 03:53:49;;;;;;;15.35;7.60;;;9.20;97.10;;;;;;5110964;28;20034;-91
2020/12/15 03:56:20;;;;;;;13.73;8.43;;;9.10;97.20;;;;;;5086887;28;20135;-90
2020/12/15 03:58:46;;;;;;;13.13;8.32;;;9.20;97.20;;;;;;5090229;28;20028;-90
2020/12/15 04:01:11;;;;;;;14.43;8.55;;;9.20;97.20;;;;;;5099743;28;20022;-90
2020/12/15 04:03:39;;;;;;;10.82;7.65;;;9.20;97.20;;;;;;5108095;28;20148;-91
2020/12/15 04:06:07;;;;;;;11.25;7.03;;;9.20;97.20;;;;;;5107538;28;20020;-91
2020/12/15 04:08:38;;;;;;;11.43;7.50;;;9.20;97.20;;;;;;5094366;28;20136;-90
2020/12/15 04:11:07;;;;;;;13.68;8.77;;;9.20;97.20;;;;;;5097162;28;20047;-89
2020/12/15 04:13:40;;;;;;;12.30;7.82;;;9.20;97.20;;;;;;5098891;28;20028;-89
2020/12/15 04:16:16;;;;;;;;;;;;;;;;;;;;;
2020/12/15 04:19:04;;;;;;;11.75;7.45;;;9.20;97.20;;;;;;5116818;28;20022;-90
2020/12/15 04:21:44;;;;;;;14.70;7.75;;;9.20;97.10;;;;;;5110264;28;20051;-90
2020/12/15 04:24:17;;;;;;;14.02;7.95;;;9.20;97.20;;;;;;5116761;28;20028;-90
2020/12/15 04:27:07;;;;;;;12.80;7.70;;;9.20;97.20;;;;;;5098143;28;20031;-90
2020/12/15 04:29:36;;;;;;;13.13;8.35;;;9.20;97.20;;;;;;5098688;28;20057;-90
2020/12/15 04:32:11;;;;;;;10.82;7.03;;;9.20;97.20;;;;;;5074567;28;20020;-90
2020/12/15 04:34:37;;;;;;;10.27;7.35;;;9.20;97.20;;;;;;5092318;28;20505;-90
2020/12/15 04:37:05;;;;;;;11.18;7.93;;;9.20;97.20;;;;;;5098667;28;20020;-90
2020/12/15 04:39:38;;;;;;;12.63;7.82;;;9.20;97.20;;;;;;5098084;28;20063;-90
2020/12/15 04:42:12;;;;;;;12.65;8.85;;;9.20;97.10;;;;;;5098248;28;20114;-90
2020/12/15 04:44:51;;;;;;;10.95;7.45;;;9.20;97.10;;;;;;5098003;28;20825;-91
2020/12/15 04:47:46;;;;;;;;;;;;;;;;;;;;;
2020/12/15 04:50:15;;;;;;;11.45;7.38;;;9.30;97.10;;;;;;5119021;28;20027;-91
2020/12/15 04:52:56;;;;;;;12.43;7.90;;;9.20;97.10;;;;;;5097967;28;20028;-89
2020/12/15 04:55:34;;;;;;;16.08;7.95;;;9.20;97.00;;;;;;5094378;28;20490;-90
2020/12/15 04:58:03;;;;;;;11.23;7.05;;;9.30;97.00;;;;;;5087917;28;20092;-88
2020/12/15 05:00:34;;;;;;;11.82;8.27;;;9.30;97.00;;;;;;5097195;28;20031;-89
2020/12/15 05:03:17;;;;;;;12.95;8.25;;;9.30;97.00;;;;;;5097935;28;20028;-90
2020/12/15 05:05:45;;;;;;;13.02;8.30;;;9.30;97.20;;;;;;5096242;28;20463;-89
2020/12/15 05:08:22;;;;;;;11.13;7.53;;;9.30;96.80;;;;;;5086328;28;20028;-89
2020/12/15 05:10:51;;;;;;;12.95;7.65;;;9.30;96.80;;;;;;5089481;28;20111;-89
2020/12/15 05:13:21;;;;;;;11.70;7.50;;;9.30;96.80;;;;;;5087123;28;20122;-89
2020/12/15 05:15:49;;;;;;;14.90;7.65;;;9.30;96.70;;;;;;5065746;28;20020;-90
2020/12/15 05:18:44;;;;;;;10.30;6.50;;;9.30;96.70;;;;;;5090903;28;20023;-90
2020/12/15 05:21:25;;;;;;;11.65;8.00;;;9.30;96.70;;;;;;5095825;28;20475;-89
2020/12/15 05:23:54;;;;;;;9.75;6.55;;;9.30;96.50;;;;;;5096983;28;20038;-90
2020/12/15 05:26:30;;;;;;;11.93;7.15;;;9.30;96.60;;;;;;5097257;28;20108;-90
2020/12/15 05:29:28;;;;;;;11.05;7.10;;;9.30;96.50;;;;;;5076992;28;20059;-89
2020/12/15 05:32:03;;;;;;;9.43;6.45;;;9.30;96.40;;;;;;5107953;28;20028;-90
2020/12/15 05:34:34;;;;;;;9.70;6.55;;;9.40;96.40;;;;;;5072905;28;20027;-89
2020/12/15 05:37:14;;;;;;;11.65;7.50;;;9.40;96.40;;;;;;5097005;28;20156;-89
2020/12/15 05:39:52;;;;;;;11.63;7.57;;;9.40;96.40;;;;;;5115402;28;20537;-90
2020/12/15 05:42:19;;;;;;;12.07;8.00;;;9.40;96.40;;;;;;5097252;28;20024;-89
2020/12/15 05:44:46;;;;;;;13.27;8.00;;;9.40;96.30;;;;;;5082972;28;20467;-89
2020/12/15 05:47:21;;;;;;;44.45;8.88;;;9.40;96.30;;;;;;5096556;28;20537;-90
2020/12/15 05:49:52;;;;;;;12.98;8.38;;;9.40;96.40;;;;;;5099510;28;20019;-89
2020/12/15 05:52:23;;;;;;;;;;;9.40;96.30;;;;;;5091155;28;20016;-87
2020/12/15 05:57:51;;;;;;;11.40;6.95;;;9.40;96.30;;;;;;5092237;28;20032;-90
2020/12/15 06:00:23;;;;;;;13.18;7.68;;;9.30;96.40;;;;;;5096379;28;20031;-90
2020/12/15 06:03:00;;;;;;;12.15;6.95;;;9.30;96.40;;;;;;5119250;27;20014;-90
2020/12/15 06:05:45;;;;;;;13.00;7.95;;;9.30;96.50;;;;;;5097801;28;20028;-89
2020/12/15 06:08:16;;;;;;;9.65;7.30;;;9.30;96.50;;;;;;5096753;28;20053;-89
2020/12/15 06:10:51;;;;;;;11.10;7.68;;;9.30;96.50;;;;;;5081572;28;20062;-90
2020/12/15 06:13:19;;;;;;;12.00;8.07;;;9.30;96.50;;;;;;5093094;28;20471;-89
2020/12/15 06:16:11;;;;;;;10.77;6.88;;;9.30;96.50;;;;;;5103671;28;20035;-90
2020/12/15 06:18:40;;;;;;;13.05;8.25;;;9.40;96.50;;;;;;5098694;28;20027;-89
2020/12/15 06:21:23;;;;;;;13.75;8.05;;;9.40;96.50;;;;;;5077093;28;20088;-94
2020/12/15 06:24:09;;;;;;;14.98;8.73;;;9.40;96.50;;;;;;5071311;28;20074;-92
2020/12/15 06:27:19;;;;;;;;;;;;;;;;;;;;;
2020/12/15 06:30:05;;;;;;;11.57;7.68;;;9.40;96.60;;;;;;5096688;28;20038;-92
2020/12/15 06:32:36;;;;;;;12.15;8.20;;;9.40;96.60;;;;;;5101660;28;20476;-89
2020/12/15 06:35:28;;;;;;;13.15;8.27;;;9.40;96.50;;;;;;5100553;28;20076;-92
2020/12/15 06:37:57;;;;;;;15.68;8.57;;;9.40;96.50;;;;;;5085072;28;20024;-91
2020/12/15 06:40:28;;;;;;;13.80;8.25;;;9.40;96.50;;;;;;5087464;28;20049;-91
2020/12/15 06:43:18;;;;;;;10.95;7.97;;;9.40;96.50;;;;;;5092822;27;20012;-90
2020/12/15 06:45:44;;;;;;;13.43;8.43;;;9.40;96.50;;;;;;5129661;22;20044;-96
2020/12/15 06:48:14;;;;;;;12.68;8.43;;;9.40;96.50;;;;;;5072077;28;20034;-96
2020/12/15 06:50:44;;;;;;;15.70;8.48;;;9.40;96.60;;;;;;5039897;28;20473;-94
2020/12/15 06:53:11;;;;;;;15.77;8.95;;;9.30;96.50;;;;;;5056748;28;20021;-94
2020/12/15 06:55:37;;;;;;;16.33;8.85;;;9.40;96.50;;;;;;5071295;28;20025;-95
2020/12/15 06:58:04;;;;;;;11.93;7.70;;;9.40;96.60;;;;;;5076055;28;20024;-94
2020/12/15 07:00:37;;;;;;;13.93;8.48;;;9.40;96.60;;;;;;5059609;28;20043;-94
2020/12/15 07:03:04;;;;;;;11.73;8.20;;;9.30;96.60;;;;;;5063438;28;20032;-93
2020/12/15 07:05:38;;;;;;;14.98;9.13;;;9.40;96.70;;;;;;5053726;28;20029;-93
2020/12/15 07:08:11;;;;;;;15.43;8.85;;;9.30;96.70;;;;;;5059962;28;20028;-92
2020/12/15 07:10:42;;;;;;;12.32;8.73;;;9.30;96.70;;;;;;5088427;28;20538;-95
2020/12/15 07:13:07;;;;;;;11.60;8.57;;;9.30;96.70;;;;;;5049783;28;20028;-96
2020/12/15 07:15:35;;;;;;;13.80;8.70;;;9.30;96.80;;;;;;5058934;28;20036;-92
2020/12/15 07:18:02;;;;;;;11.75;8.48;;;9.30;96.70;;;;;;5095770;28;20021;-92
2020/12/15 07:20:28;;;;;;;15.45;8.50;;;9.40;96.70;;;;;;5068932;28;20028;-91
2020/12/15 07:22:53;;;;;;;12.57;8.82;;;9.30;96.70;;;;;;5095498;28;20043;-91
2020/12/15 07:25:20;;;;;;;10.68;7.60;;;9.30;96.70;;;;;;5054666;28;20107;-92
2020/12/15 07:27:47;;;;;;;16.67;9.18;;;9.40;96.80;;;;;;5096062;28;20020;-92
2020/12/15 07:30:16;;;;;;;12.45;8.43;;;9.30;96.70;;;;;;5064569;28;20039;-91
2020/12/15 07:32:43;;;;;;;15.02;9.02;;;9.30;96.70;;;;;;5082907;28;20032;-92
2020/12/15 07:35:13;;;;;;;16.40;9.45;;;9.30;96.70;;;;;;5060646;28;20103;-91
2020/12/15 07:37:40;;;;;;;16.10;10.07;;;9.30;96.70;;;;;;5079407;28;20470;-92
2020/12/15 07:40:08;;;;;;;14.88;9.07;;;9.30;96.80;;;;;;5061609;28;20085;-92
2020/12/15 07:42:34;;;;;;;14.95;9.55;;;9.30;96.80;;;;;;5056208;28;20028;-91
2020/12/15 07:45:03;;;;;;;12.27;7.47;;;9.30;96.70;;;;;;5094798;28;20024;-92
2020/12/15 07:47:28;;;;;;;13.93;8.63;;;9.40;96.70;;;;;;5087092;28;20020;-91
2020/12/15 07:49:57;;;;;;;15.32;10.20;;;9.40;96.90;;;;;;5056606;28;20094;-92
2020/12/15 07:52:31;;;;;;;13.85;9.13;;;9.50;96.60;;;;;;5046058;28;20047;-91
2020/12/15 07:55:07;;;;;;;11.15;7.90;;;9.50;96.60;;;;;;5085670;28;20020;-92
2020/12/15 07:57:34;;;;;;;12.77;8.32;;;9.50;96.50;;;;;;5079387;28;20478;-91
2020/12/15 08:00:09;;;;;;;14.65;10.50;;;9.60;96.50;;;;;;5067413;28;20024;-91
2020/12/15 08:02:36;;;;;;;18.00;11.00;;;9.60;96.40;;;;;;5082695;28;20031;-91
2020/12/15 08:05:07;;;;;;;13.20;9.90;;;9.60;96.30;;;;;;5089160;28;20012;-89
2020/12/15 08:07:38;;;;;;;11.40;8.40;;;9.60;96.40;;;;;;5086241;28;20114;-92
2020/12/15 08:10:04;;;;;;;12.43;8.68;;;9.60;96.50;;;;;;5076986;28;20024;-92
2020/12/15 08:12:32;;;;;;;13.80;10.27;;;9.60;96.40;;;;;;5056088;28;20028;-92
2020/12/15 08:14:58;;;;;;;17.08;11.20;;;9.60;96.40;;;;;;5084642;28;20449;-92
2020/12/15 08:17:25;;;;;;;17.13;12.05;;;9.60;96.40;;;;;;5044561;28;20031;-92
2020/12/15 08:19:51;;;;;;;18.88;12.98;;;9.60;96.40;;;;;;5079179;28;20120;-91
2020/12/15 08:22:19;;;;;;;15.55;11.43;;;9.50;96.50;;;;;;5052482;28;20028;-92
2020/12/15 08:24:51;;;;;;;15.82;10.75;;;9.60;96.50;;;;;;5060478;28;20024;-90
2020/12/15 08:27:16;;;;;;;21.77;14.20;;;9.60;96.60;;;;;;5064738;28;20477;-91
2020/12/15 08:29:42;;;;;;;23.13;14.88;;;9.60;96.60;;;;;;5059374;28;20036;-91
2020/12/15 08:32:08;;;;;;;19.10;14.13;;;9.50;96.70;;;;;;5077438;28;20020;-91
2020/12/15 08:34:35;;;;;;;23.50;14.20;;;9.50;96.80;;;;;;5072074;28;20089;-92
2020/12/15 08:37:02;;;;;;;24.70;16.35;;;9.60;96.90;;;;;;5088617;28;20017;-92
2020/12/15 08:39:28;;;;;;;17.17;12.65;;;9.50;96.90;;;;;;5062936;28;20536;-92
2020/12/15 08:41:56;;;;;;;20.08;14.90;;;9.50;97.00;;;;;;5070650;28;20024;-92
2020/12/15 08:44:23;;;;;;;19.67;15.20;;;9.60;97.10;;;;;;5077380;28;20029;-91
2020/12/15 08:46:56;;;;;;;18.58;13.93;;;9.60;97.10;;;;;;5080680;28;20041;-90
2020/12/15 08:49:25;;;;;;;21.60;15.45;;;9.60;97.20;;;;;;5069651;28;20032;-92
2020/12/15 08:51:53;;;;;;;25.50;15.63;;;9.60;97.10;;;;;;5079882;28;20024;-92
2020/12/15 08:54:21;;;;;;;20.73;15.02;;;9.60;97.20;;;;;;5081376;28;20067;-91
2020/12/15 08:56:47;;;;;;;20.38;14.27;;;9.60;97.30;;;;;;5070905;28;20454;-92
2020/12/15 08:59:18;;;;;;;21.33;13.98;;;9.60;97.20;;;;;;5078758;28;20032;-90
2020/12/15 09:01:44;;;;;;;18.25;13.52;;;9.60;97.30;;;;;;5072639;28;20377;-91
2020/12/15 09:04:11;;;;;;;22.60;16.20;;;9.70;97.20;;;;;;5072777;28;20020;-93
2020/12/15 09:06:39;;;;;;;23.25;16.15;;;9.70;97.20;;;;;;5081107;28;20021;-90
2020/12/15 09:09:07;;;;;;;23.63;16.02;;;9.70;97.20;;;;;;5091382;28;20035;-91
2020/12/15 09:11:33;;;;;;;22.55;15.90;;;9.70;97.30;;;;;;5077340;28;20016;-91
2020/12/15 09:14:01;;;;;;;21.40;15.00;;;9.70;97.30;;;;;;5078704;28;20021;-91
2020/12/15 09:16:32;;;;;;;19.95;15.05;;;9.70;97.30;;;;;;5051581;28;20029;-90
2020/12/15 09:19:27;;;;;;;19.15;13.68;;;9.70;97.30;;;;;;5077324;28;20397;-91
2020/12/15 09:22:01;;;;;;;21.15;14.88;;;9.80;97.20;;;;;;5094005;28;20059;-91
2020/12/15 09:24:28;;;;;;;22.45;15.82;;;9.80;97.10;;;;;;5086152;28;20025;-91
2020/12/15 09:26:55;;;;;;;23.17;16.75;;;9.80;97.10;;;;;;5069901;28;20020;-90
2020/12/15 09:29:21;;;;;;;18.42;14.13;;;9.80;97.10;;;;;;5088273;28;20035;-91
2020/12/15 09:31:55;;;;;;;20.65;15.27;;;9.80;97.10;;;;;;5076960;28;20035;-90
2020/12/15 09:34:21;;;;;;;22.42;15.85;;;9.90;97.40;;;;;;5081199;28;20028;-90
2020/12/15 09:36:58;;;;;;;21.98;15.45;;;9.90;97.10;;;;;;5071255;28;20115;-91
2020/12/15 09:39:29;;;;;;;22.67;15.10;;;9.90;97.10;;;;;;5092989;28;20028;-90
2020/12/15 09:41:58;;;;;;;;;;;9.90;97.10;;;;;;5093344;28;20412;-90
2020/12/15 09:44:24;;;;;;;18.25;14.55;;;9.90;97.20;;;;;;5085789;28;19911;-90
2020/12/15 09:46:50;;;;;;;18.02;14.20;;;9.90;97.10;;;;;;5061341;28;20071;-90
2020/12/15 09:49:15;;;;;;;24.58;16.52;;;9.90;97.20;;;;;;5072567;28;20025;-90
2020/12/15 09:51:42;;;;;;;19.77;15.32;;;10.00;97.20;;;;;;5072459;28;20024;-90
2020/12/15 09:54:09;;;;;;;19.70;13.15;;;9.90;97.10;;;;;;5072453;28;20021;-90
2020/12/15 09:56:35;;;;;;;17.85;12.68;;;10.00;97.20;;;;;;5072256;28;20107;-89
2020/12/15 09:59:01;;;;;;;19.73;13.55;;;10.00;97.40;;;;;;5055553;28;20021;-91
2020/12/15 10:01:26;;;;;;;18.20;14.45;;;10.10;97.10;;;;;;5072368;28;20017;-90
2020/12/15 10:03:52;;;;;;;21.98;15.32;;;10.00;97.10;;;;;;5039065;28;20094;-90
2020/12/15 10:06:18;;;;;;;17.23;12.32;;;10.00;97.10;;;;;;5048381;28;20481;-90
2020/12/15 10:08:44;;;;;;;21.45;15.20;;;10.10;97.10;;;;;;5087700;28;20473;-90
2020/12/15 10:11:17;;;;;;;18.30;12.70;;;10.10;97.00;;;;;;5075895;28;20036;-90
2020/12/15 10:13:43;;;;;;;22.40;16.65;;;10.10;97.00;;;;;;5091747;28;20497;-90
2020/12/15 10:16:09;;;;;;;21.02;15.55;;;10.10;96.80;;;;;;5066281;28;20028;-89
2020/12/15 10:18:35;;;;;;;21.55;16.42;;;10.10;96.90;;;;;;5082680;28;20028;-90
2020/12/15 10:21:01;;;;;;;21.10;14.95;;;10.10;96.90;;;;;;5087092;28;20028;-89
2020/12/15 10:23:27;;;;;;;18.00;13.38;;;10.10;97.00;;;;;;5055341;28;20017;-90
2020/12/15 10:25:52;;;;;;;23.92;15.65;;;10.10;97.00;;;;;;5068168;28;20032;-90
2020/12/15 10:28:18;;;;;;;21.83;16.58;;;10.10;96.90;;;;;;5056447;28;20108;-90
2020/12/15 10:30:44;;;;;;;22.13;17.30;;;10.10;96.90;;;;;;5055547;28;20473;-90
2020/12/15 10:33:11;;;;;;;23.83;16.90;;;10.10;96.90;;;;;;5073739;28;20029;-90
2020/12/15 10:35:36;;;;;;;17.25;13.52;;;10.20;96.90;;;;;;5059029;28;20122;-91
2020/12/15 10:38:02;;;;;;;25.00;16.67;;;10.20;97.00;;;;;;5057562;28;20163;-91
2020/12/15 10:40:28;;;;;;;24.70;17.13;;;10.20;96.90;;;;;;5053831;28;20077;-91
2020/12/15 10:42:53;;;;;;;21.08;15.43;;;10.20;96.90;;;;;;5052622;28;20029;-90
2020/12/15 10:45:19;;;;;;;22.88;17.15;;;10.20;97.00;;;;;;5056313;28;20475;-90
2020/12/15 10:47:45;;;;;;;18.83;14.55;;;10.20;96.90;;;;;;5079819;28;20028;-91
2020/12/15 10:50:10;;;;;;;21.40;16.77;;;10.20;97.00;;;;;;5061439;28;20025;-90
2020/12/15 10:52:36;;;;;;;22.40;16.15;;;10.30;96.90;;;;;;5056350;28;20056;-91
2020/12/15 10:55:03;;;;;;;21.98;16.67;;;10.30;96.90;;;;;;5086004;28;20105;-90
2020/12/15 10:57:30;;;;;;;25.27;17.52;;;10.30;96.80;;;;;;5049173;28;20035;-90
2020/12/15 10:59:56;;;;;;;18.15;14.00;;;10.30;96.80;;;;;;5072577;28;20028;-90
2020/12/15 11:02:21;;;;;;;20.50;14.13;;;10.30;96.90;;;;;;5065350;28;20027;-89
2020/12/15 11:04:47;;;;;;;24.23;17.30;;;10.30;96.80;;;;;;5047828;28;20091;-91
2020/12/15 11:07:13;;;;;;;16.80;14.02;;;10.30;96.80;;;;;;5067734;28;20417;-90
2020/12/15 11:09:38;;;;;;;15.43;11.85;;;10.30;96.90;;;;;;5083259;28;20107;-90
2020/12/15 11:12:04;;;;;;;21.85;15.85;;;10.30;96.90;;;;;;5070210;28;20028;-90
2020/12/15 11:14:30;;;;;;;20.33;14.23;;;10.40;96.80;;;;;;5066662;28;20024;-88
2020/12/15 11:16:58;;;;;;;19.65;13.90;;;10.40;96.70;;;;;;5066620;28;20032;-90
2020/12/15 11:19:23;;;;;;;18.65;14.15;;;10.40;96.80;;;;;;5068339;28;20032;-90
2020/12/15 11:21:52;;;;;;;24.00;17.08;;;10.30;97.00;;;;;;5082070;28;20024;-90
2020/12/15 11:24:18;;;;;;;17.20;13.25;;;10.30;96.70;;;;;;5074757;28;20043;-90
2020/12/15 11:26:43;;;;;;;21.35;14.82;;;10.40;96.70;;;;;;5069408;28;20017;-90
2020/12/15 11:29:09;;;;;;;20.08;14.05;;;10.40;96.70;;;;;;5041238;28;20405;-89
2020/12/15 11:31:35;;;;;;;17.80;13.02;;;10.40;96.70;;;;;;5065749;28;20028;-89
2020/12/15 11:34:00;;;;;;;20.55;14.10;;;10.40;96.70;;;;;;5072138;28;20021;-88
2020/12/15 11:36:28;;;;;;;18.15;13.35;;;10.40;96.70;;;;;;5059581;28;20462;-87
2020/12/15 11:38:54;;;;;;;15.88;12.57;;;10.40;96.70;;;;;;5092039;28;20016;-88
2020/12/15 11:41:26;;;;;;;23.75;16.00;;;10.50;96.70;;;;;;5068120;28;20039;-88
2020/12/15 11:43:51;;;;;;;22.45;14.93;;;10.50;96.60;;;;;;5065608;28;20027;-89
2020/12/15 11:46:17;;;;;;;22.13;15.80;;;10.50;96.60;;;;;;5046472;28;20108;-89
2020/12/15 11:48:43;;;;;;;21.05;15.57;;;10.50;96.70;;;;;;5056448;28;20410;-89
2020/12/15 11:51:08;;;;;;;19.35;15.45;;;10.40;96.70;;;;;;5091805;28;20043;-89
2020/12/15 11:53:34;;;;;;;21.35;15.35;;;10.40;96.70;;;;;;5058245;28;20112;-89
2020/12/15 11:56:00;;;;;;;25.92;19.17;;;10.50;96.70;;;;;;5060255;28;20021;-90
2020/12/15 11:58:25;;;;;;;22.85;17.25;;;10.50;96.70;;;;;;5074485;28;20020;-90
2020/12/15 12:00:51;;;;;;;23.50;15.50;;;10.50;96.70;;;;;;5058044;28;20516;-89
2020/12/15 12:03:17;;;;;;;24.73;17.92;;;10.50;96.70;;;;;;5072783;28;20033;-89
2020/12/15 12:05:42;;;;;;;20.70;15.65;;;10.50;96.70;;;;;;5060095;28;20523;-89
2020/12/15 12:08:08;;;;;;;23.15;17.52;;;10.50;96.70;;;;;;5075506;28;20028;-89
2020/12/15 12:10:34;;;;;;;26.90;19.33;;;10.50;96.70;;;;;;5072931;28;20035;-89
2020/12/15 12:12:59;;;;;;;21.17;16.17;;;10.50;96.70;;;;;;5068781;28;20489;-89
2020/12/15 12:15:27;;;;;;;20.60;15.80;;;10.50;96.70;;;;;;5058182;28;20055;-89
2020/12/15 12:17:52;;;;;;;23.00;16.13;;;10.50;96.70;;;;;;5063476;28;20025;-89
2020/12/15 12:20:18;;;;;;;17.88;13.98;;;10.60;96.80;;;;;;5075007;28;20093;-89
2020/12/15 12:22:44;;;;;;;16.48;13.27;;;10.50;96.80;;;;;;5060006;28;20024;-89
2020/12/15 12:25:09;;;;;;;21.75;15.80;;;10.60;96.80;;;;;;5072002;22;20144;-92
2020/12/15 12:27:36;;;;;;;20.25;14.73;;;10.60;96.70;;;;;;5044221;28;20030;-91
2020/12/15 12:30:02;;;;;;;21.02;16.00;;;10.60;96.70;;;;;;5037187;28;20032;-91
2020/12/15 12:32:28;;;;;;;18.60;14.23;;;10.60;96.70;;;;;;5021995;28;20033;-92
2020/12/15 12:34:53;;;;;;;21.98;15.68;;;10.60;96.80;;;;;;5018013;28;20029;-92
2020/12/15 12:37:19;;;;;;;27.08;17.98;;;10.60;96.80;;;;;;5021512;28;20363;-92
2020/12/15 12:39:44;;;;;;;24.33;16.83;;;10.60;96.80;;;;;;5005344;28;20529;-91
2020/12/15 12:42:12;;;;;;;26.90;17.25;;;10.60;96.80;;;;;;5020936;28;20521;-91
2020/12/15 12:44:38;;;;;;;27.25;19.33;;;10.60;96.80;;;;;;5010464;28;20032;-91
2020/12/15 12:47:04;;;;;;;26.42;16.60;;;10.60;96.80;;;;;;4990627;28;20033;-91
2020/12/15 12:49:29;;;;;;;29.98;19.92;;;10.60;96.80;;;;;;5005253;28;20108;-91
2020/12/15 12:51:57;;;;;;;22.55;16.17;;;10.60;96.70;;;;;;5017923;28;20394;-92
2020/12/15 12:54:22;;;;;;;26.60;18.38;;;10.60;96.80;;;;;;5021086;28;20025;-91
2020/12/15 12:56:48;;;;;;;21.35;16.45;;;10.60;96.80;;;;;;5034958;28;20111;-91
2020/12/15 12:59:14;;;;;;;27.80;18.60;;;10.60;96.90;;;;;;4999713;28;20026;-92
2020/12/15 13:01:41;;;;;;;22.48;14.90;;;10.60;96.90;;;;;;5008042;28;20018;-91
2020/12/15 13:04:06;;;;;;;34.38;20.33;;;10.60;96.90;;;;;;4993989;28;20030;-90
2020/12/15 13:06:32;;;;;;;34.80;21.60;;;10.60;96.90;;;;;;5018083;28;20024;-92
2020/12/15 13:08:58;;;;;;;26.20;17.33;;;10.60;96.90;;;;;;5036206;28;20013;-91
2020/12/15 13:11:24;;;;;;;33.67;21.50;;;10.60;97.00;;;;;;5005268;28;20039;-91
2020/12/15 13:13:50;;;;;;;27.15;18.27;;;10.60;97.00;;;;;;5021712;28;20485;-91
2020/12/15 13:16:16;;;;;;;27.85;18.42;;;10.60;96.90;;;;;;5021933;28;20115;-92
2020/12/15 13:18:42;;;;;;;24.05;16.77;;;10.60;96.90;;;;;;5022043;28;20056;-90
2020/12/15 13:21:08;;;;;;;28.67;20.52;;;10.60;97.00;;;;;;5025943;28;20033;-91
2020/12/15 13:23:33;;;;;;;21.23;15.50;;;10.70;97.00;;;;;;5013793;28;20036;-91
2020/12/15 13:25:59;;;;;;;18.23;13.95;;;10.70;97.00;;;;;;5005159;28;20108;-90
2020/12/15 13:28:25;;;;;;;22.75;16.15;;;10.70;97.00;;;;;;5021945;28;20032;-91
2020/12/15 13:30:51;;;;;;;30.13;19.95;;;10.70;96.90;;;;;;5006004;28;20505;-91